メインページ
METAR-TAF:

METAR-TAF

空港 :

ポルト・アレグレ, リオグランデ・ド・スル州, ブラジル

サルガド・フィーリョ国際空港

緯度: 30-00S, 経度: 051-11W, 海抜: 3m

現時点の気象観測

当レポートは52分前の01:00(UTC)に作成
東/北東の風 5kt、北/北東から東/南東の間で変化する
気温 17°C
湿度 82%
気圧 1022 hPa
視程10km以上
1,500メートル以下は雲なし、積乱雲なし

METAR: SBPA 260100Z 06005KT 020V110 CAVOK 17/14 Q1022

時間: 22:52 (01:52 UTC)

予報

当レポートは3時間22分前の22:30(UTC)に作成
予報は26日の 00時(UTC)から 26日の 24時(UTC)まで有効
東/北東の風 4kt
視程10km以上
1,500メートル以下は雲なし、積乱雲なし

TAF: SBPA 252230Z 2600/2624 06004KT CAVOK TN15/2609Z TX24/2618Z RMK PE R

4,000以上の空港の気象観測と天気予報(METAR報とTAF報)

利用可能な観測所は地図上に黄色い丸と赤い丸で示す。

丸の上にカーソルを重ねると観測所名を参照できる。

次にクリックすると気象観測と天気予報を参照できる。

マップの切り替え:黒色「×」印の緑ボタンをクリックして拡大、「-」印の緑ボタンをクリックして縮小、緑色の三角印をクリックして隣りの地図に切り替え


METAR-TAF: